OOH weather

Hoonah Seaplane Base
Hoonah, Alaska, United States

Public forecast

Using degrees Fahrenheit for public forecast. Weather courtesy of forecast.io.

Closest aviation weather report (METAR) to Hoonah Seaplane Base

Closest report is Hoonah Airport, 1.6 nm (3.0 km) SE. Retrieved 2020/06/01 21:56 UTC (54 minutes ago):

PAOH 012156Z AUTO 07010G18KT 10SM -RA FEW022 BKN033 OVC040 09/07 A2983 RMK AO2 SLP100 P0000 T00940067

Closest aviation forecast (TAF) to Hoonah Seaplane Base

Closest forecast is Gustavus Airport, 20.5 nm (37.9 km) NNW. Retrieved 2020/06/01 18:39 UTC (4 hours ago):

TAF PAGS 011737Z 0118/0218 12010KT P6SM -RA OVC050 FM020600 12010KT 6SM -SHRA OVC025 AMD LTD TO CLD VIS AND WIND